Time;durP1;ratioP1;P1;durP2;ratioP2;P2;SDS_P1;SDS_P2;PMS_P1;PMS_P2;Temp;Humidity;BMP_temperature;BMP_pressure;BME280_temperature;BME280_humidity;BME280_pressure;Samples;Min_cycle;Max_cycle;Signal;HPM_P1;HPM_P2
2024/02/18 00:01:17;;;;;;;74.82;33.88;;;;;;;2.58;100.00;100646.56;5073727;28;20016;-71
2024/02/18 00:03:44;;;;;;;57.25;28.67;;;;;;;2.11;100.00;100631.16;5088141;28;20020;-71
2024/02/18 00:06:09;;;;;;;64.88;32.47;;;;;;;1.75;100.00;100627.78;5094269;28;20494;-71
2024/02/18 00:08:35;;;;;;;64.05;31.08;;;;;;;1.59;100.00;100637.69;5111705;28;20024;-70
2024/02/18 00:11:00;;;;;;;74.28;35.33;;;;;;;1.57;100.00;100639.84;5111121;28;20472;-71
2024/02/18 00:13:26;;;;;;;81.10;34.92;;;;;;;1.49;100.00;100639.16;5091737;28;20032;-72
2024/02/18 00:15:52;;;;;;;72.75;33.65;;;;;;;1.52;100.00;100640.59;5091137;28;20040;-72
2024/02/18 00:18:17;;;;;;;75.28;37.70;;;;;;;1.29;100.00;100634.09;5090529;28;20484;-73
2024/02/18 00:20:43;;;;;;;75.10;35.83;;;;;;;1.63;100.00;100647.16;5093147;28;20027;-73
2024/02/18 00:23:08;;;;;;;74.78;35.30;;;;;;;1.37;100.00;100644.72;5110751;28;20028;-72
2024/02/18 00:25:34;;;;;;;72.05;37.35;;;;;;;1.34;100.00;100644.38;5111391;28;20024;-72
2024/02/18 00:27:59;;;;;;;82.93;39.70;;;;;;;1.40;100.00;100651.66;5111362;28;20034;-73
2024/02/18 00:30:26;;;;;;;83.18;38.97;;;;;;;1.47;100.00;100652.38;5077266;28;20031;-73
2024/02/18 00:32:52;;;;;;;81.55;37.38;;;;;;;1.59;100.00;100641.28;5098817;28;20088;-72
2024/02/18 00:35:17;;;;;;;86.05;41.20;;;;;;;1.71;100.00;100638.50;5111156;28;20020;-73
2024/02/18 00:37:43;;;;;;;82.30;37.72;;;;;;;1.70;100.00;100630.44;5111506;28;20027;-73
2024/02/18 00:40:09;;;;;;;84.28;38.38;;;;;;;1.80;100.00;100628.69;5091948;28;20039;-73
2024/02/18 00:42:34;;;;;;;78.18;36.90;;;;;;;2.03;100.00;100626.06;5092570;28;20024;-73
2024/02/18 00:44:59;;;;;;;81.20;36.67;;;;;;;2.01;100.00;100631.84;5096617;28;20028;-73
2024/02/18 00:47:25;;;;;;;74.80;36.05;;;;;;;2.02;100.00;100627.16;5072255;28;20027;-73
2024/02/18 00:49:50;;;;;;;81.55;38.00;;;;;;;1.46;100.00;100631.41;5090583;28;20031;-72
2024/02/18 00:52:16;;;;;;;89.20;37.50;;;;;;;1.30;100.00;100624.72;5090484;28;20019;-73
2024/02/18 00:54:41;;;;;;;85.95;39.63;;;;;;;1.64;100.00;100615.72;5072285;28;20089;-72
2024/02/18 00:57:07;;;;;;;76.13;37.30;;;;;;;1.91;100.00;100626.13;5102832;28;20047;-73
2024/02/18 00:59:32;;;;;;;78.35;36.20;;;;;;;2.13;100.00;100617.13;5110751;28;20030;-73
2024/02/18 01:01:58;;;;;;;78.57;36.38;;;;;;;2.10;100.00;100619.31;5109970;28;20019;-73
2024/02/18 01:04:23;;;;;;;75.18;33.80;;;;;;;2.19;100.00;100616.13;5092330;28;20078;-73
2024/02/18 01:06:49;;;;;;;78.65;36.90;;;;;;;2.20;100.00;100609.53;5110621;28;20121;-73
2024/02/18 01:09:14;;;;;;;80.47;39.40;;;;;;;2.31;100.00;100605.84;5110106;28;20054;-73
2024/02/18 01:11:40;;;;;;;77.53;35.60;;;;;;;2.03;100.00;100602.06;5109673;28;20573;-73
2024/02/18 01:14:05;;;;;;;84.72;38.55;;;;;;;2.10;100.00;100596.38;5110164;28;20008;-73
2024/02/18 01:16:31;;;;;;;75.30;35.08;;;;;;;1.93;100.00;100604.63;5108601;28;20024;-73
2024/02/18 01:18:56;;;;;;;78.05;37.05;;;;;;;1.92;100.00;100600.22;5110431;28;20023;-73
2024/02/18 01:21:22;;;;;;;78.80;36.13;;;;;;;2.15;100.00;100598.38;5091988;28;20496;-73
2024/02/18 01:23:49;;;;;;;73.15;34.72;;;;;;;2.30;98.74;100595.88;5110794;28;20028;-71
2024/02/18 01:26:14;;;;;;;79.97;36.80;;;;;;;2.34;97.97;100601.72;5091625;28;20488;-71
2024/02/18 01:28:41;;;;;;;80.97;34.47;;;;;;;2.27;97.46;100588.09;5092558;28;20053;-71
2024/02/18 01:31:07;;;;;;;65.90;36.53;;;;;;;2.12;98.60;100577.66;5092641;28;20019;-71
2024/02/18 01:33:32;;;;;;;63.50;35.28;;;;;;;2.04;99.50;100592.69;5091847;28;20030;-70
2024/02/18 01:35:58;;;;;;;61.55;32.75;;;;;;;2.15;98.85;100587.34;5111024;28;20023;-70
2024/02/18 01:38:23;;;;;;;69.15;32.53;;;;;;;2.02;98.73;100571.97;5092406;28;20110;-70
2024/02/18 01:40:49;;;;;;;71.60;32.13;;;;;;;1.60;100.00;100575.94;5066132;28;20036;-70
2024/02/18 01:43:17;;;;;;;64.88;31.05;;;;;;;1.39;100.00;100583.81;5097640;28;20059;-71
2024/02/18 01:45:47;;;;;;;65.53;32.63;;;;;;;1.61;99.85;100572.09;5092474;28;20029;-70
2024/02/18 01:48:16;;;;;;;67.20;31.83;;;;;;;1.37;99.48;100555.66;5075464;28;20061;-70
2024/02/18 01:50:42;;;;;;;61.03;29.10;;;;;;;1.31;97.48;100557.47;5101277;28;20032;-71
2024/02/18 01:53:09;;;;;;;59.58;30.58;;;;;;;1.29;98.45;100556.91;5072342;28;20020;-71
2024/02/18 01:55:35;;;;;;;66.20;30.80;;;;;;;1.43;98.45;100562.94;5101160;28;20053;-71
2024/02/18 01:58:03;;;;;;;58.05;29.48;;;;;;;1.28;98.86;100552.47;5091919;28;20047;-71
2024/02/18 02:00:29;;;;;;;60.03;30.23;;;;;;;1.38;98.83;100560.91;5110683;28;20054;-71
2024/02/18 02:02:56;;;;;;;61.50;30.55;;;;;;;1.41;99.89;100576.13;5082178;28;20063;-70
2024/02/18 02:05:21;;;;;;;63.42;28.90;;;;;;;1.42;99.55;100561.25;5090484;28;20031;-71
2024/02/18 02:07:50;;;;;;;60.20;29.98;;;;;;;1.49;99.51;100566.63;5090223;28;20106;-71
2024/02/18 02:10:16;;;;;;;60.83;31.20;;;;;;;1.52;98.82;100550.41;5086100;28;20039;-71
2024/02/18 02:12:42;;;;;;;56.97;27.73;;;;;;;1.51;97.27;100562.53;5092048;28;20042;-71
2024/02/18 02:15:09;;;;;;;62.67;30.10;;;;;;;1.34;98.94;100550.66;5091592;28;20020;-70
2024/02/18 02:17:37;;;;;;;65.50;30.42;;;;;;;1.39;99.11;100556.25;5101424;28;20024;-70
2024/02/18 02:20:09;;;;;;;61.42;30.35;;;;;;;1.41;98.35;100551.31;5090117;28;20513;-71
2024/02/18 02:22:34;;;;;;;62.67;31.17;;;;;;;1.40;98.23;100566.19;5090117;28;20024;-70
2024/02/18 02:25:00;;;;;;;58.28;30.35;;;;;;;1.42;98.36;100555.75;5072200;28;20528;-70
2024/02/18 02:27:33;;;;;;;67.03;31.58;;;;;;;1.30;98.31;100561.31;5075041;28;20027;-70
2024/02/18 02:29:59;;;;;;;60.92;31.35;;;;;;;1.45;98.93;100558.03;5075570;28;20020;-70
2024/02/18 02:32:25;;;;;;;68.05;30.77;;;;;;;1.69;98.01;100585.50;5098749;28;20553;-71
2024/02/18 02:34:53;;;;;;;59.63;30.13;;;;;;;1.39;98.12;100578.31;5074852;28;20111;-72
2024/02/18 02:37:19;;;;;;;61.88;29.20;;;;;;;1.38;97.19;100579.41;5074764;28;20024;-73
2024/02/18 02:39:44;;;;;;;56.72;26.35;;;;;;;1.10;98.36;100579.13;5074450;28;20031;-73
2024/02/18 02:42:10;;;;;;;54.65;27.98;;;;;;;1.00;98.49;100576.16;5091599;28;20088;-73
2024/02/18 02:44:35;;;;;;;51.13;26.60;;;;;;;1.04;96.86;100579.28;5094998;28;20027;-72
2024/02/18 02:47:01;;;;;;;53.33;28.98;;;;;;;1.05;97.73;100583.69;5112538;28;20028;-73
2024/02/18 02:49:26;;;;;;;68.30;31.63;;;;;;;1.12;97.05;100585.22;5113199;28;20023;-72
2024/02/18 02:51:52;;;;;;;60.58;29.52;;;;;;;1.09;98.65;100587.66;5113279;28;20023;-73
2024/02/18 02:54:17;;;;;;;57.97;28.10;;;;;;;0.86;100.00;100586.63;5113220;28;20026;-73
2024/02/18 02:56:43;;;;;;;59.67;29.90;;;;;;;0.59;100.00;100597.31;5094814;28;20094;-72
2024/02/18 02:59:08;;;;;;;64.45;29.80;;;;;;;0.65;100.00;100604.59;5113094;28;20027;-73
2024/02/18 03:01:34;;;;;;;60.25;30.02;;;;;;;0.75;99.91;100604.00;5087698;28;20408;-73
2024/02/18 03:03:59;;;;;;;67.75;32.10;;;;;;;0.82;99.19;100596.44;5109690;28;20077;-73
2024/02/18 03:06:26;;;;;;;60.70;30.25;;;;;;;0.82;98.22;100589.03;5095050;28;20047;-72
2024/02/18 03:08:51;;;;;;;74.43;29.95;;;;;;;0.78;98.48;100598.00;5112951;28;20030;-72
2024/02/18 03:11:17;;;;;;;62.22;29.23;;;;;;;0.84;98.18;100600.63;5094258;28;20034;-73
2024/02/18 03:13:42;;;;;;;53.60;28.17;;;;;;;1.01;97.80;100604.56;5112800;28;20389;-73
2024/02/18 03:16:08;;;;;;;55.38;28.25;;;;;;;0.92;98.67;100596.66;5112931;28;20023;-72
2024/02/18 03:18:33;;;;;;;56.80;29.50;;;;;;;0.88;99.31;100600.16;5112761;28;20028;-73
2024/02/18 03:20:58;;;;;;;62.80;30.38;;;;;;;0.96;98.63;100595.09;5094515;28;20028;-73
2024/02/18 03:23:26;;;;;;;68.65;33.13;;;;;;;0.87;99.36;100599.31;5094183;28;20028;-72
2024/02/18 03:25:54;;;;;;;61.88;31.38;;;;;;;1.04;99.08;100591.13;5089316;28;20125;-72
2024/02/18 03:28:19;;;;;;;68.07;33.33;;;;;;;1.00;99.00;100591.88;5074229;28;20024;-72
2024/02/18 03:30:50;;;;;;;65.07;31.20;;;;;;;1.04;99.45;100585.63;5111528;28;20032;-73
2024/02/18 03:33:16;;;;;;;65.03;31.50;;;;;;;1.18;98.66;100594.44;5111573;28;20027;-73
2024/02/18 03:35:42;;;;;;;64.68;32.35;;;;;;;1.22;99.39;100594.78;5094163;28;20027;-72
2024/02/18 03:38:07;;;;;;;69.20;33.17;;;;;;;1.15;98.56;100585.81;5111171;28;20419;-72
2024/02/18 03:40:33;;;;;;;63.00;30.48;;;;;;;1.12;99.60;100599.00;5093707;28;20526;-73
2024/02/18 03:42:58;;;;;;;69.28;33.55;;;;;;;1.08;100.00;100608.00;5112410;28;20474;-72
2024/02/18 03:45:23;;;;;;;67.60;33.88;;;;;;;1.12;99.47;100604.50;5112252;28;20032;-73
2024/02/18 03:47:49;;;;;;;66.88;32.47;;;;;;;0.89;100.00;100608.19;5112066;28;20047;-72
2024/02/18 03:50:14;;;;;;;66.00;29.83;;;;;;;0.85;99.18;100604.25;5112181;28;20027;-73
2024/02/18 03:52:43;;;;;;;86.28;39.50;;;;;;;0.48;100.00;100608.09;5090263;28;20077;-73
2024/02/18 03:55:13;;;;;;;73.10;38.38;;;;;;;0.02;100.00;100607.84;5073476;28;20047;-72
2024/02/18 03:57:39;;;;;;;;;;;;;;;0.15;100.00;100611.44;5073994;28;20059;-72
2024/02/18 04:00:10;;;;;;;68.80;34.55;;;;;;;-0.05;100.00;100616.19;5073455;28;19912;-72
2024/02/18 04:02:38;;;;;;;64.90;33.92;;;;;;;-0.05;100.00;100618.94;5097471;28;20049;-72
2024/02/18 04:05:05;;;;;;;79.50;36.30;;;;;;;0.09;100.00;100616.78;5093478;28;20110;-72
2024/02/18 04:07:30;;;;;;;68.90;32.63;;;;;;;0.26;100.00;100608.69;5111262;28;20016;-72
2024/02/18 04:09:55;;;;;;;70.60;34.70;;;;;;;0.31;100.00;100618.16;5093293;28;20082;-72
2024/02/18 04:12:22;;;;;;;66.00;30.10;;;;;;;0.00;100.00;100607.25;5093463;28;20068;-72
2024/02/18 04:14:48;;;;;;;60.10;28.42;;;;;;;0.30;100.00;100616.44;5111587;28;20038;-72
2024/02/18 04:17:14;;;;;;;70.32;32.88;;;;;;;-0.02;100.00;100615.72;5093299;28;20103;-72
2024/02/18 04:19:39;;;;;;;72.40;33.60;;;;;;;0.12;100.00;100627.34;5111521;28;20030;-72
2024/02/18 04:22:05;;;;;;;70.70;33.78;;;;;;;-0.01;100.00;100614.63;5094477;28;20032;-73
2024/02/18 04:24:30;;;;;;;65.50;33.08;;;;;;;0.18;100.00;100613.72;5072779;28;20028;-73
2024/02/18 04:26:56;;;;;;;75.38;32.78;;;;;;;0.27;100.00;100618.63;5072765;28;20031;-72
2024/02/18 04:29:21;;;;;;;69.38;35.70;;;;;;;0.20;100.00;100615.16;5091057;28;20024;-72
2024/02/18 04:31:47;;;;;;;75.15;41.17;;;;;;;-0.06;100.00;100616.41;5074254;28;20036;-72
2024/02/18 04:34:12;;;;;;;75.32;39.33;;;;;;;-0.12;100.00;100614.59;5109841;28;20076;-73
2024/02/18 04:36:39;;;;;;;80.88;41.88;;;;;;;-0.10;100.00;100620.72;5093015;28;20034;-72
2024/02/18 04:39:05;;;;;;;79.03;38.60;;;;;;;-0.13;100.00;100621.19;5111138;28;20042;-73
2024/02/18 04:41:31;;;;;;;73.88;36.55;;;;;;;-0.55;100.00;100619.25;5110771;28;20051;-72
2024/02/18 04:43:56;;;;;;;65.22;34.30;;;;;;;-0.67;100.00;100599.97;5092997;28;20051;-71
2024/02/18 04:46:22;;;;;;;72.25;34.85;;;;;;;-0.28;100.00;100611.47;5110167;28;20034;-72
2024/02/18 04:48:47;;;;;;;77.35;37.25;;;;;;;-0.23;100.00;100617.09;5089984;28;20024;-72
2024/02/18 04:51:13;;;;;;;71.57;34.78;;;;;;;-0.32;100.00;100613.00;5090482;28;20024;-72
2024/02/18 04:53:39;;;;;;;76.47;37.92;;;;;;;-0.31;100.00;100610.00;5090926;28;20024;-69
2024/02/18 04:56:05;;;;;;;94.03;39.88;;;;;;;-1.05;100.00;100601.91;5072422;28;20059;-69
2024/02/18 04:58:30;;;;;;;83.93;39.13;;;;;;;-0.86;100.00;100597.25;5090149;28;20131;-69
2024/02/18 05:00:56;;;;;;;90.75;41.05;;;;;;;-1.00;100.00;100602.91;5090693;28;20032;-69
2024/02/18 05:03:22;;;;;;;106.85;51.55;;;;;;;-0.99;100.00;100601.00;5102699;28;20027;-70
2024/02/18 05:05:47;;;;;;;104.75;53.72;;;;;;;-0.89;100.00;100597.72;5110790;28;20028;-70
2024/02/18 05:08:13;;;;;;;111.53;55.30;;;;;;;-0.72;100.00;100601.50;5110887;28;20027;-69
2024/02/18 05:10:39;;;;;;;116.10;52.55;;;;;;;-0.57;100.00;100600.25;5092477;28;20032;-69
2024/02/18 05:13:05;;;;;;;112.85;53.63;;;;;;;-0.43;100.00;100604.47;5110746;28;20020;-69
2024/02/18 05:15:31;;;;;;;154.73;64.88;;;;;;;-0.25;100.00;100591.72;5073728;28;20439;-69
2024/02/18 05:17:56;;;;;;;159.57;64.80;;;;;;;-0.16;100.00;100593.06;5093883;28;20178;-69
2024/02/18 05:20:22;;;;;;;118.35;54.20;;;;;;;-0.15;100.00;100591.16;5110305;28;20115;-69
2024/02/18 05:22:47;;;;;;;128.38;57.25;;;;;;;-0.39;100.00;100590.25;5092392;28;20020;-70
2024/02/18 05:25:13;;;;;;;121.38;55.17;;;;;;;-0.15;100.00;100614.00;5110687;28;20024;-70
2024/02/18 05:27:38;;;;;;;97.28;44.88;;;;;;;-0.26;100.00;100606.56;5088271;28;20042;-70
2024/02/18 05:30:04;;;;;;;91.63;40.55;;;;;;;-0.60;100.00;100597.97;5090809;28;20024;-70
2024/02/18 05:32:30;;;;;;;95.38;47.88;;;;;;;-0.79;100.00;100594.41;5071926;28;20064;-69
2024/02/18 05:34:55;;;;;;;86.22;39.17;;;;;;;-0.85;100.00;100607.16;5090172;28;20458;-69
2024/02/18 05:37:21;;;;;;;84.35;39.03;;;;;;;-0.75;100.00;100617.63;5072086;28;20386;-69
2024/02/18 05:39:46;;;;;;;82.18;34.42;;;;;;;-0.62;100.00;100614.69;5090089;28;20408;-69
2024/02/18 05:42:12;;;;;;;75.32;34.47;;;;;;;-0.79;100.00;100606.25;5090193;28;20504;-69
2024/02/18 05:44:37;;;;;;;68.43;32.28;;;;;;;-0.77;100.00;100609.59;5106451;28;20522;-70
2024/02/18 05:47:03;;;;;;;79.85;35.63;;;;;;;-0.58;100.00;100615.06;5092070;28;20031;-69
2024/02/18 05:49:28;;;;;;;70.75;32.05;;;;;;;-1.08;100.00;100633.44;5090902;28;20080;-69
2024/02/18 05:51:54;;;;;;;76.47;30.55;;;;;;;-0.72;100.00;100625.41;5110037;28;20031;-70
2024/02/18 05:54:20;;;;;;;74.00;32.28;;;;;;;-0.49;100.00;100624.66;5095655;28;20054;-68
2024/02/18 05:56:46;;;;;;;85.53;34.45;;;;;;;-0.26;100.00;100634.06;5090852;28;20119;-70
2024/02/18 05:59:12;;;;;;;81.20;32.90;;;;;;;-0.45;100.00;100636.03;5090577;28;20020;-71
2024/02/18 06:01:37;;;;;;;68.68;31.35;;;;;;;-0.36;100.00;100628.28;5093774;28;20107;-70
2024/02/18 06:04:03;;;;;;;69.55;30.52;;;;;;;-0.16;100.00;100634.31;5075909;28;20024;-71
2024/02/18 06:06:29;;;;;;;67.90;32.33;;;;;;;0.05;100.00;100629.38;5093842;28;20089;-73
2024/02/18 06:08:55;;;;;;;69.15;30.90;;;;;;;0.05;100.00;100631.25;5107571;28;20488;-71
2024/02/18 06:11:20;;;;;;;63.83;30.05;;;;;;;0.13;100.00;100640.03;5095758;28;20031;-72
2024/02/18 06:13:46;;;;;;;75.22;33.13;;;;;;;0.13;100.00;100640.03;5114040;28;20039;-72
2024/02/18 06:16:12;;;;;;;74.72;33.70;;;;;;;0.22;100.00;100639.66;5094663;28;20042;-72
2024/02/18 06:18:38;;;;;;;78.93;40.47;;;;;;;0.58;100.00;100647.97;5110237;28;20032;-72
2024/02/18 06:21:04;;;;;;;75.85;33.25;;;;;;;0.70;100.00;100646.06;5097452;28;20030;-72
2024/02/18 06:23:30;;;;;;;66.68;32.78;;;;;;;0.73;100.00;100645.56;5093972;28;20024;-69
2024/02/18 06:25:56;;;;;;;68.35;33.58;;;;;;;0.88;100.00;100653.34;5094436;28;20024;-70
2024/02/18 06:28:21;;;;;;;70.75;33.42;;;;;;;1.01;99.67;100646.72;5092957;28;20020;-70
2024/02/18 06:30:47;;;;;;;77.45;34.17;;;;;;;1.17;98.04;100645.13;5092996;28;20026;-70
2024/02/18 06:33:12;;;;;;;74.97;35.55;;;;;;;1.05;99.51;100650.69;5092827;28;20063;-71
2024/02/18 06:35:38;;;;;;;68.05;33.92;;;;;;;0.82;100.00;100646.03;5084416;28;20065;-70
2024/02/18 06:38:03;;;;;;;68.90;33.75;;;;;;;0.88;100.00;100655.25;5084059;28;20034;-73
2024/02/18 06:40:29;;;;;;;62.70;29.58;;;;;;;0.93;100.00;100650.69;5092797;28;20024;-71
2024/02/18 06:42:54;;;;;;;69.38;33.38;;;;;;;0.98;100.00;100664.59;5094256;28;20024;-73
2024/02/18 06:45:19;;;;;;;70.03;34.67;;;;;;;1.20;100.00;100650.16;5114279;28;20023;-73
2024/02/18 06:47:45;;;;;;;79.93;40.40;;;;;;;1.37;100.00;100665.94;5102839;28;20024;-72
2024/02/18 06:50:11;;;;;;;86.95;41.35;;;;;;;1.45;99.74;100667.47;5103597;28;20023;-72
2024/02/18 06:52:37;;;;;;;99.07;49.72;;;;;;;1.59;98.63;100657.84;5097523;28;20711;-73
2024/02/18 06:55:06;;;;;;;95.78;46.95;;;;;;;1.51;98.54;100656.31;5108568;28;20023;-77
2024/02/18 06:57:31;;;;;;;93.75;43.88;;;;;;;1.39;100.00;100647.22;5097880;28;20051;-75
2024/02/18 06:59:57;;;;;;;106.57;53.05;;;;;;;1.72;100.00;100644.81;5093753;28;20016;-73
2024/02/18 07:02:23;;;;;;;101.65;51.97;;;;;;;1.96;100.00;100645.56;5088104;28;20085;-74
2024/02/18 07:04:49;;;;;;;95.30;51.17;;;;;;;2.20;100.00;100648.19;5094677;28;20430;-75
2024/02/18 07:07:15;;;;;;;103.28;51.25;;;;;;;2.07;99.89;100646.56;5093767;28;20035;-74
2024/02/18 07:09:42;;;;;;;99.50;52.75;;;;;;;1.91;100.00;100642.69;5111255;28;20092;-75
2024/02/18 07:12:08;;;;;;;107.55;53.63;;;;;;;2.29;99.96;100635.59;5106602;28;20470;-74
2024/02/18 07:14:33;;;;;;;113.75;57.97;;;;;;;2.57;99.79;100644.06;5112158;28;20023;-71
2024/02/18 07:16:59;;;;;;;97.93;48.97;;;;;;;2.84;98.74;100648.88;5103641;28;20027;-72
2024/02/18 07:19:25;;;;;;;87.25;38.85;;;;;;;2.77;97.62;100649.03;5111537;28;20557;-76
2024/02/18 07:21:50;;;;;;;75.18;35.50;;;;;;;3.06;98.23;100635.91;5109569;28;20046;-80
2024/02/18 07:24:16;;;;;;;88.40;42.33;;;;;;;3.35;97.75;100646.81;5091644;28;20039;-79
2024/02/18 07:26:41;;;;;;;70.10;36.75;;;;;;;3.42;97.39;100638.31;5089168;28;20066;-73
2024/02/18 07:29:07;;;;;;;70.50;35.58;;;;;;;3.61;96.38;100636.03;5088374;28;20794;-71
2024/02/18 07:31:36;;;;;;;79.03;36.67;;;;;;;3.83;96.41;100637.94;5091477;28;20035;-72
2024/02/18 07:34:02;;;;;;;71.35;35.05;;;;;;;3.92;95.27;100635.50;5106873;28;20028;-77
2024/02/18 07:36:27;;;;;;;72.35;34.90;;;;;;;3.99;96.21;100630.59;5110186;28;20050;-73
2024/02/18 07:38:53;;;;;;;88.32;44.80;;;;;;;4.16;97.51;100624.94;5105610;28;20055;-78
2024/02/18 07:41:18;;;;;;;83.15;43.15;;;;;;;4.44;97.34;100627.63;5088808;28;20031;-73
2024/02/18 07:43:44;;;;;;;78.78;39.63;;;;;;;4.73;97.14;100632.84;5106856;28;20035;-72
2024/02/18 07:46:11;;;;;;;74.25;36.25;;;;;;;5.08;97.12;100636.94;5105227;28;20059;-73
2024/02/18 07:48:36;;;;;;;65.85;36.63;;;;;;;5.25;96.72;100622.03;5088387;28;20137;-75
2024/02/18 07:51:02;;;;;;;70.30;37.53;;;;;;;5.56;94.97;100633.25;5086884;28;20047;-69
2024/02/18 07:53:27;;;;;;;62.03;34.20;;;;;;;5.11;97.47;100630.00;5082329;28;21183;-73
2024/02/18 07:55:53;;;;;;;71.45;38.75;;;;;;;5.70;94.97;100634.38;5103015;28;20028;-72
2024/02/18 07:58:18;;;;;;;72.85;36.88;;;;;;;6.08;94.08;100609.19;5104029;28;20047;-72
2024/02/18 08:00:44;;;;;;;77.95;40.60;;;;;;;6.50;91.63;100614.75;5109525;28;20511;-76
2024/02/18 08:03:10;;;;;;;72.10;37.28;;;;;;;6.79;89.58;100615.00;5108314;28;20038;-76
2024/02/18 08:05:35;;;;;;;62.28;34.35;;;;;;;7.14;88.52;100616.00;5083739;28;20027;-73
2024/02/18 08:08:01;;;;;;;62.10;33.63;;;;;;;7.15;86.20;100611.25;5099845;28;20492;-75
2024/02/18 08:10:27;;;;;;;70.75;36.67;;;;;;;7.07;86.51;100612.66;5069306;28;20039;-73
2024/02/18 08:12:52;;;;;;;69.63;37.22;;;;;;;7.06;86.27;100608.22;5097099;28;20561;-73
2024/02/18 08:15:18;;;;;;;72.63;37.58;;;;;;;6.87;87.84;100605.22;5082355;28;20122;-72
2024/02/18 08:17:43;;;;;;;80.35;41.35;;;;;;;6.98;88.91;100600.44;5107196;28;20069;-74
2024/02/18 08:20:10;;;;;;;79.00;42.83;;;;;;;7.16;89.00;100605.41;5089501;28;20046;-73
2024/02/18 08:22:35;;;;;;;81.30;42.83;;;;;;;7.45;88.75;100604.72;5103158;28;20473;-70
2024/02/18 08:25:04;;;;;;;70.65;39.88;;;;;;;7.81;87.97;100603.69;5092140;28;20035;-72
2024/02/18 08:27:31;;;;;;;65.80;37.85;;;;;;;8.14;87.48;100600.38;5103660;28;20075;-76
2024/02/18 08:29:56;;;;;;;69.75;38.75;;;;;;;8.33;85.96;100578.19;5093018;28;20085;-73
2024/02/18 08:32:22;;;;;;;82.55;46.30;;;;;;;8.62;82.18;100607.25;5090249;28;20475;-69
2024/02/18 08:34:47;;;;;;;69.18;39.38;;;;;;;8.77;80.41;100597.91;5090299;28;20031;-73
2024/02/18 08:37:12;;;;;;;74.45;40.22;;;;;;;9.06;81.26;100594.22;5106579;28;20030;-72
2024/02/18 08:39:39;;;;;;;56.67;33.60;;;;;;;9.20;77.35;100599.91;5101448;28;20377;-73
2024/02/18 08:42:04;;;;;;;55.50;30.38;;;;;;;9.46;74.89;100600.41;5098323;28;20032;-70
2024/02/18 08:44:30;;;;;;;47.08;21.83;;;;;;;9.83;69.16;100593.19;5101330;28;20419;-70
2024/02/18 08:46:56;;;;;;;36.65;19.38;;;;;;;10.13;66.69;100584.59;5109120;28;20380;-73
2024/02/18 08:49:23;;;;;;;37.92;18.67;;;;;;;10.19;63.60;100586.19;5110546;28;20053;-72
2024/02/18 08:51:49;;;;;;;42.47;19.95;;;;;;;10.42;63.82;100577.16;5084689;28;20042;-71
2024/02/18 08:54:16;;;;;;;46.13;22.20;;;;;;;10.74;61.43;100579.13;5084439;28;20026;-72
2024/02/18 08:56:42;;;;;;;37.13;21.08;;;;;;;10.77;60.62;100566.44;5077105;28;20436;-72
2024/02/18 08:59:08;;;;;;;35.22;19.88;;;;;;;10.99;58.65;100582.56;5091508;28;20511;-72
2024/02/18 09:01:33;;;;;;;42.60;23.25;;;;;;;11.00;60.10;100580.56;5088807;28;20032;-71
2024/02/18 09:03:59;;;;;;;35.60;21.55;;;;;;;11.05;60.13;100572.88;5084300;28;20481;-71
2024/02/18 09:06:27;;;;;;;37.42;19.73;;;;;;;11.08;58.96;100569.47;5105247;28;20023;-71
2024/02/18 09:08:53;;;;;;;62.30;18.55;;;;;;;11.35;60.80;100567.81;5100027;28;20035;-73
2024/02/18 09:11:19;;;;;;;37.03;19.10;;;;;;;11.46;59.67;100568.38;5087679;28;20046;-76
2024/02/18 09:13:44;;;;;;;36.60;19.08;;;;;;;11.65;60.15;100559.84;5078941;28;20419;-72
2024/02/18 09:16:10;;;;;;;24.13;16.60;;;;;;;11.77;59.42;100561.25;5101201;28;20797;-72
2024/02/18 09:18:37;;;;;;;41.50;19.83;;;;;;;11.92;57.88;100552.47;5085744;28;20488;-72
2024/02/18 09:21:03;;;;;;;86.93;43.55;;;;;;;12.19;56.30;100558.31;5072018;28;20103;-71
2024/02/18 09:23:29;;;;;;;37.60;18.42;;;;;;;12.38;53.90;100560.91;5072081;28;20032;-71
2024/02/18 09:25:56;;;;;;;42.95;17.50;;;;;;;12.56;54.52;100527.34;5093112;28;20067;-72
2024/02/18 09:28:21;;;;;;;39.67;18.88;;;;;;;12.55;51.75;100548.94;5098471;28;20078;-73
2024/02/18 09:30:47;;;;;;;33.83;17.58;;;;;;;12.71;51.10;100552.16;5104269;28;20035;-71
2024/02/18 09:33:14;;;;;;;33.42;18.00;;;;;;;12.61;51.81;100547.69;5072509;28;20028;-73
2024/02/18 09:35:39;;;;;;;20.35;13.85;;;;;;;12.50;48.91;100541.50;5105583;28;20464;-72
2024/02/18 09:38:08;;;;;;;27.63;14.10;;;;;;;12.76;48.05;100546.41;5091054;28;20027;-73
2024/02/18 09:40:36;;;;;;;20.15;11.85;;;;;;;13.10;47.59;100552.50;5109549;28;20496;-73
2024/02/18 09:43:01;;;;;;;28.75;14.27;;;;;;;13.10;46.17;100566.53;5090326;28;20032;-74
2024/02/18 09:45:28;;;;;;;27.58;13.55;;;;;;;13.18;47.31;100554.47;5086298;28;20056;-69
2024/02/18 09:47:57;;;;;;;26.10;12.52;;;;;;;13.29;46.67;100555.03;5086077;28;20130;-73
2024/02/18 09:50:23;;;;;;;32.40;17.75;;;;;;;13.31;48.32;100557.47;5108106;28;20036;-72
2024/02/18 09:52:50;;;;;;;25.70;15.68;;;;;;;13.38;48.20;100559.81;5101842;28;20507;-71
2024/02/18 09:55:17;;;;;;;21.77;14.73;;;;;;;13.13;48.21;100553.81;5106671;28;20031;-73
2024/02/18 09:57:42;;;;;;;27.10;15.98;;;;;;;12.57;48.79;100543.03;5106373;28;20054;-73
2024/02/18 10:00:09;;;;;;;26.50;17.25;;;;;;;12.47;51.33;100549.72;5066219;28;20058;-73
2024/02/18 10:02:35;;;;;;;36.17;18.30;;;;;;;12.57;52.51;100557.06;5089276;28;20024;-72
2024/02/18 10:05:02;;;;;;;30.95;17.42;;;;;;;12.28;53.07;100552.75;5092031;28;20028;-71
2024/02/18 10:07:28;;;;;;;33.50;16.35;;;;;;;12.41;52.44;100553.84;5086204;28;20110;-70
2024/02/18 10:09:53;;;;;;;27.30;17.42;;;;;;;12.48;53.37;100549.41;5103707;28;20111;-69
2024/02/18 10:12:20;;;;;;;37.88;18.73;;;;;;;12.42;53.15;100550.69;5105319;28;20130;-70
2024/02/18 10:14:56;;;;;;;28.92;17.35;;;;;;;12.12;54.84;100541.94;5102655;28;20027;-71
2024/02/18 10:17:21;;;;;;;27.23;18.27;;;;;;;11.85;56.24;100537.25;5084423;28;20551;-75
2024/02/18 10:19:47;;;;;;;32.83;19.17;;;;;;;11.75;57.21;100544.75;5096312;28;20036;-70
2024/02/18 10:22:13;;;;;;;32.38;21.48;;;;;;;11.61;60.16;100533.59;5079698;28;20042;-68
2024/02/18 10:24:38;;;;;;;32.60;21.13;;;;;;;11.41;60.33;100540.50;5083494;28;20027;-69
2024/02/18 10:27:04;;;;;;;40.20;22.20;;;;;;;11.39;61.10;100534.38;5104342;28;20042;-69
2024/02/18 10:29:30;;;;;;;35.67;22.27;;;;;;;11.29;62.48;100538.22;5106839;28;20028;-69
2024/02/18 10:31:55;;;;;;;39.25;23.55;;;;;;;11.20;62.84;100534.50;5084080;28;20059;-70
2024/02/18 10:34:21;;;;;;;32.47;21.42;;;;;;;11.14;63.27;100535.78;5081632;28;20465;-69
2024/02/18 10:36:50;;;;;;;44.08;24.55;;;;;;;11.31;64.39;100540.72;5084339;28;20035;-69
2024/02/18 10:39:16;;;;;;;38.80;23.15;;;;;;;11.31;64.38;100527.53;5099747;28;20039;-72
2024/02/18 10:41:50;;;;;;;41.67;26.55;;;;;;;11.41;63.33;100520.91;5102750;28;20034;-69
2024/02/18 10:44:18;;;;;;;42.15;26.77;;;;;;;11.61;63.62;100521.53;5095962;28;20036;-67
2024/02/18 10:46:47;;;;;;;40.97;25.95;;;;;;;11.86;62.89;100517.31;5098134;28;20040;-68
2024/02/18 10:49:24;;;;;;;45.28;26.77;;;;;;;11.84;63.54;100516.81;5071138;28;20049;-67
2024/02/18 10:51:59;;;;;;;35.83;21.88;;;;;;;11.65;62.51;100512.19;5080868;28;20590;-70
2024/02/18 10:54:39;;;;;;;38.63;23.83;;;;;;;11.72;62.83;100514.56;5109613;28;20023;-68
2024/02/18 10:57:06;;;;;;;42.10;24.88;;;;;;;11.92;64.18;100518.00;5109001;28;20059;-67
2024/02/18 11:00:04;;;;;;;43.35;24.77;;;;;;;11.98;63.93;100510.31;5109806;28;20031;-69
2024/02/18 11:03:11;;;;;;;51.60;30.02;;;;;;;12.13;63.04;100512.72;5092064;28;20134;-67
2024/02/18 11:05:38;;;;;;;43.75;26.27;;;;;;;12.07;62.37;100508.44;5086534;28;20643;-68
2024/02/18 11:08:07;;;;;;;46.05;28.25;;;;;;;12.12;62.38;100502.66;5081534;28;20079;-69